createdAt,value
2018-07-02T00:00:21.346Z,95267.95
2018-07-02T00:02:47.992Z,95265.66
2018-07-02T00:05:14.629Z,95262.36
2018-07-02T00:07:41.263Z,95274.35
2018-07-02T00:10:07.897Z,95269.45
2018-07-02T00:12:34.584Z,95274.71
2018-07-02T00:15:01.228Z,95273.01
2018-07-02T00:17:27.858Z,95274.59
2018-07-02T00:19:54.534Z,95265.83
2018-07-02T00:22:21.164Z,95260.47
2018-07-02T00:24:47.834Z,95261.04
2018-07-02T00:27:14.439Z,95270.02
2018-07-02T00:29:41.133Z,95277.45
2018-07-02T00:32:07.763Z,95272.48
2018-07-02T00:34:34.448Z,95279.44
2018-07-02T00:37:01.150Z,95282.81
2018-07-02T00:39:27.751Z,95286.02
2018-07-02T00:41:54.430Z,95286.48
2018-07-02T00:44:21.039Z,95282.73
2018-07-02T00:46:47.688Z,95279.31
2018-07-02T00:49:14.370Z,95274.13
2018-07-02T00:51:41.009Z,95278.28
2018-07-02T00:54:07.688Z,95268.67
2018-07-02T00:56:34.330Z,95267.11
2018-07-02T00:59:01.004Z,95267.53
2018-07-02T01:01:27.639Z,95262.58
2018-07-02T01:03:54.277Z,95257.41
2018-07-02T01:06:20.926Z,95252.10
2018-07-02T01:08:47.595Z,95254.03
2018-07-02T01:11:14.246Z,95254.58
2018-07-02T01:13:40.918Z,95246.95
2018-07-02T01:16:07.557Z,95254.05
2018-07-02T01:18:34.224Z,95251.03
2018-07-02T01:21:00.900Z,95242.68
2018-07-02T01:23:27.566Z,95243.20
2018-07-02T01:25:54.197Z,95238.95
2018-07-02T01:28:20.884Z,95237.51
2018-07-02T01:30:47.651Z,95235.83
2018-07-02T01:33:14.287Z,95236.35
2018-07-02T01:35:40.974Z,95235.08
2018-07-02T01:38:07.600Z,95231.09
2018-07-02T01:40:34.292Z,95233.14
2018-07-02T01:43:00.929Z,95234.30
2018-07-02T01:45:27.555Z,95237.95
2018-07-02T01:47:54.239Z,95240.20
2018-07-02T01:50:20.884Z,95241.00
2018-07-02T01:52:47.518Z,95248.22
2018-07-02T01:55:15.480Z,95256.44
2018-07-02T01:57:40.795Z,95263.66
2018-07-02T02:00:07.477Z,95266.80
2018-07-02T02:02:34.109Z,95259.78
2018-07-02T02:05:00.750Z,95259.03
2018-07-02T02:07:27.387Z,95261.86
2018-07-02T02:09:54.042Z,95263.42
2018-07-02T02:12:20.721Z,95264.45
2018-07-02T02:14:47.355Z,95272.73
2018-07-02T02:17:13.990Z,95278.90
2018-07-02T02:19:40.635Z,95278.30
2018-07-02T02:22:07.309Z,95276.88
2018-07-02T02:24:34.023Z,95274.69
2018-07-02T02:27:00.676Z,95286.80
2018-07-02T02:29:27.307Z,95285.66
2018-07-02T02:31:53.995Z,95290.59
2018-07-02T02:34:20.666Z,95292.53
2018-07-02T02:36:47.270Z,95292.74
2018-07-02T02:39:13.952Z,95301.61
2018-07-02T02:41:40.590Z,95296.59
2018-07-02T02:44:07.279Z,95297.09
2018-07-02T02:46:33.915Z,95292.79
2018-07-02T02:49:00.590Z,95294.92
2018-07-02T02:51:27.306Z,95291.03
2018-07-02T02:53:53.933Z,95288.64
2018-07-02T02:56:20.571Z,95294.45
2018-07-02T02:58:47.204Z,95304.45
2018-07-02T03:01:13.851Z,95299.68
2018-07-02T03:03:40.520Z,95305.55
2018-07-02T03:06:07.150Z,95304.80
2018-07-02T03:08:33.822Z,95307.53
2018-07-02T03:11:00.463Z,95303.84
2018-07-02T03:13:27.094Z,95311.77
2018-07-02T03:15:53.771Z,95314.37
2018-07-02T03:18:20.419Z,95312.34
2018-07-02T03:20:47.158Z,95312.23
2018-07-02T03:23:13.831Z,95313.70
2018-07-02T03:25:40.469Z,95313.87
2018-07-02T03:28:07.156Z,95313.70
2018-07-02T03:30:33.837Z,95316.99
2018-07-02T03:33:00.468Z,95317.41
2018-07-02T03:35:27.171Z,95319.05
2018-07-02T03:37:53.800Z,95323.14
2018-07-02T03:40:20.474Z,95321.88
2018-07-02T03:42:47.115Z,95324.34
2018-07-02T03:45:13.799Z,95316.87
2018-07-02T03:47:40.435Z,95319.73
2018-07-02T03:50:07.065Z,95314.52
2018-07-02T03:52:33.753Z,95322.39
2018-07-02T03:55:00.357Z,95314.45
2018-07-02T03:57:27.031Z,95306.34
2018-07-02T03:59:53.696Z,95302.91
2018-07-02T04:02:20.332Z,95306.92
2018-07-02T04:04:46.969Z,95305.48
2018-07-02T04:07:13.644Z,95313.20
2018-07-02T04:09:40.278Z,95320.75
2018-07-02T04:12:07.050Z,95321.48
2018-07-02T04:14:33.646Z,95312.35
2018-07-02T04:17:00.364Z,95312.53
2018-07-02T04:19:27.045Z,95313.25
2018-07-02T04:21:53.653Z,95311.94
2018-07-02T04:24:20.284Z,95308.52
2018-07-02T04:26:46.939Z,95309.02
2018-07-02T04:29:13.612Z,95309.66
2018-07-02T04:31:40.265Z,95311.75
2018-07-02T04:34:06.967Z,95325.41
2018-07-02T04:36:33.532Z,95320.70
2018-07-02T04:39:00.169Z,95332.06
2018-07-02T04:41:26.817Z,95334.89
2018-07-02T04:43:53.485Z,95337.53
2018-07-02T04:46:20.125Z,95341.44
2018-07-02T04:48:46.748Z,95347.86
2018-07-02T04:51:13.443Z,95347.16
2018-07-02T04:53:40.105Z,95331.58
2018-07-02T04:56:06.741Z,95337.56
2018-07-02T04:58:33.415Z,95340.80
2018-07-02T05:01:00.063Z,95348.06
2018-07-02T05:03:26.749Z,95351.61
2018-07-02T05:05:53.385Z,95366.05
2018-07-02T05:08:20.021Z,95366.01
2018-07-02T05:10:46.799Z,95361.81
2018-07-02T05:13:13.430Z,95375.20
2018-07-02T05:15:40.066Z,95385.83
2018-07-02T05:18:06.749Z,95386.50
2018-07-02T05:20:33.396Z,95382.54
2018-07-02T05:23:00.069Z,95379.38
2018-07-02T05:25:26.735Z,95361.23
2018-07-02T05:27:53.338Z,95357.53
2018-07-02T05:30:20.067Z,95357.53
2018-07-02T05:32:46.707Z,95360.30
2018-07-02T05:35:13.346Z,95360.39
2018-07-02T05:37:39.973Z,95359.91
2018-07-02T05:40:06.725Z,95348.93
2018-07-02T05:42:33.366Z,95357.74
2018-07-02T05:45:00.044Z,95354.47
2018-07-02T05:47:26.700Z,95342.80
2018-07-02T05:49:53.330Z,95331.34
2018-07-02T05:52:19.967Z,95323.53
2018-07-02T05:54:46.661Z,95338.52
2018-07-02T05:57:13.503Z,95354.86
2018-07-02T05:59:40.182Z,95359.56
2018-07-02T06:02:06.785Z,95351.74
2018-07-02T06:04:33.436Z,95356.78
2018-07-02T06:07:00.142Z,95365.06
2018-07-02T06:09:26.840Z,95362.62
2018-07-02T06:11:53.511Z,95355.12
2018-07-02T06:14:20.127Z,95356.00
2018-07-02T06:16:46.885Z,95354.56
2018-07-02T06:19:13.489Z,95359.68
2018-07-02T06:21:40.239Z,95358.13
2018-07-02T06:24:06.878Z,95352.83
2018-07-02T06:26:33.559Z,95344.52
2018-07-02T06:29:00.211Z,95334.39
2018-07-02T06:31:26.905Z,95336.22
2018-07-02T06:33:53.587Z,95349.92
2018-07-02T06:36:20.308Z,95352.66
2018-07-02T06:38:46.940Z,95349.88
2018-07-02T06:41:13.624Z,95346.16
2018-07-02T06:43:40.269Z,95342.73
2018-07-02T06:46:06.939Z,95338.87
2018-07-02T06:48:33.606Z,95342.27
2018-07-02T06:51:00.232Z,95341.63
2018-07-02T06:53:26.994Z,95340.23
2018-07-02T06:55:53.687Z,95351.52
2018-07-02T06:58:20.336Z,95350.69
2018-07-02T07:00:47.042Z,95346.44
2018-07-02T07:03:13.760Z,95343.77
2018-07-02T07:05:40.332Z,95339.05
2018-07-02T07:08:07.023Z,95340.00
2018-07-02T07:10:33.645Z,95335.94
2018-07-02T07:13:00.279Z,95330.44
2018-07-02T07:15:26.939Z,95335.22
2018-07-02T07:17:53.619Z,95328.29
2018-07-02T07:20:20.256Z,95336.45
2018-07-02T07:22:47.005Z,95339.73
2018-07-02T07:25:13.857Z,95334.49
2018-07-02T07:27:40.554Z,95334.84
2018-07-02T07:30:07.197Z,95332.70
2018-07-02T07:32:33.833Z,95351.86
2018-07-02T07:35:00.479Z,95349.22
2018-07-02T07:37:27.141Z,95344.97
2018-07-02T07:39:53.777Z,95346.23
2018-07-02T07:42:20.448Z,95348.86
2018-07-02T07:44:47.135Z,95348.93
2018-07-02T07:47:13.719Z,95349.92
2018-07-02T07:49:40.398Z,95354.88
2018-07-02T07:52:07.128Z,95352.73
2018-07-02T07:54:33.732Z,95353.33
2018-07-02T07:57:00.367Z,95351.48
2018-07-02T07:59:27.054Z,95364.97
2018-07-02T08:01:53.659Z,95354.20
2018-07-02T08:04:20.384Z,95355.69
2018-07-02T08:06:46.996Z,95348.24
2018-07-02T08:09:13.636Z,95347.74
2018-07-02T08:11:40.279Z,95351.16
2018-07-02T08:14:06.938Z,95337.75
2018-07-02T08:16:33.621Z,95341.23
2018-07-02T08:19:00.339Z,95347.07
2018-07-02T08:21:26.989Z,95335.97
2018-07-02T08:23:53.627Z,95339.20
2018-07-02T08:26:20.343Z,95339.33
2018-07-02T08:28:46.952Z,95333.17
2018-07-02T08:31:13.619Z,95333.31
2018-07-02T08:33:40.253Z,95330.69
2018-07-02T08:36:06.934Z,95331.73
2018-07-02T08:38:33.609Z,95330.06
2018-07-02T08:41:00.248Z,95322.52
2018-07-02T08:43:26.899Z,95320.06
2018-07-02T08:45:53.551Z,95318.91
2018-07-02T08:48:20.180Z,95318.28
2018-07-02T08:50:46.810Z,95321.78
2018-07-02T08:53:13.446Z,95324.81
2018-07-02T08:55:40.138Z,95320.08
2018-07-02T08:58:06.734Z,95324.20
2018-07-02T09:00:33.421Z,95319.63
2018-07-02T09:03:00.023Z,95321.66
2018-07-02T09:05:27.872Z,95327.61
2018-07-02T09:07:53.310Z,95327.23
2018-07-02T09:10:19.956Z,95324.34
2018-07-02T09:12:46.588Z,95315.44
2018-07-02T09:15:13.260Z,95308.64
2018-07-02T09:17:39.934Z,95314.59
2018-07-02T09:20:06.548Z,95311.57
2018-07-02T09:22:33.205Z,95310.67
2018-07-02T09:24:59.845Z,95308.78
2018-07-02T09:27:26.483Z,95310.76
2018-07-02T09:29:53.144Z,95310.88
2018-07-02T09:32:19.811Z,95309.09
2018-07-02T09:34:46.445Z,95309.17
2018-07-02T09:37:13.078Z,95305.22
2018-07-02T09:39:40.833Z,95303.38
2018-07-02T09:42:07.432Z,95291.52
2018-07-02T09:44:34.084Z,95291.48
2018-07-02T09:47:00.737Z,95291.09
2018-07-02T09:49:27.391Z,95286.71
2018-07-02T09:51:54.071Z,95291.09
2018-07-02T09:54:20.724Z,95276.26
2018-07-02T09:56:47.366Z,95280.70
2018-07-02T09:59:14.081Z,95287.05
2018-07-02T10:01:40.714Z,95280.50
2018-07-02T10:04:07.365Z,95273.78
2018-07-02T10:06:34.044Z,95273.55
2018-07-02T10:09:00.714Z,95272.27
2018-07-02T10:11:27.351Z,95269.73
2018-07-02T10:13:53.997Z,95275.90
2018-07-02T10:16:20.653Z,95263.27
2018-07-02T10:18:47.296Z,95261.12
2018-07-02T10:21:13.940Z,95254.79
2018-07-02T10:23:40.691Z,95256.30
2018-07-02T10:26:07.297Z,95260.86
2018-07-02T10:28:33.917Z,95259.17
2018-07-02T10:31:00.653Z,95253.07
2018-07-02T10:33:27.240Z,95248.20
2018-07-02T10:35:53.887Z,95248.19
2018-07-02T10:38:20.559Z,95240.78
2018-07-02T10:40:47.159Z,95238.23
2018-07-02T10:43:13.813Z,95241.02
2018-07-02T10:45:40.452Z,95233.67
2018-07-02T10:48:07.107Z,95235.28
2018-07-02T10:50:33.755Z,95230.67
2018-07-02T10:53:00.433Z,95229.13
2018-07-02T10:55:27.137Z,95217.56
2018-07-02T10:57:55.081Z,95218.94
2018-07-02T11:00:20.461Z,95229.48
2018-07-02T11:02:47.396Z,95222.24
2018-07-02T11:05:14.039Z,95216.50
2018-07-02T11:07:40.670Z,95217.42
2018-07-02T11:10:07.375Z,95208.68
2018-07-02T11:12:34.034Z,95210.98
2018-07-02T11:15:00.672Z,95210.72
2018-07-02T11:17:27.343Z,95203.52
2018-07-02T11:19:54.008Z,95210.59
2018-07-02T11:22:20.653Z,95207.86
2018-07-02T11:24:47.294Z,95206.69
2018-07-02T11:27:13.994Z,95206.89
2018-07-02T11:29:40.630Z,95205.78
2018-07-02T11:32:08.672Z,95210.39
2018-07-02T11:34:34.020Z,95201.05
2018-07-02T11:37:00.725Z,95207.33
2018-07-02T11:39:27.344Z,95207.08
2018-07-02T11:41:54.084Z,95196.45
2018-07-02T11:44:20.883Z,95191.63
2018-07-02T11:46:48.611Z,95193.72
2018-07-02T11:49:15.235Z,95190.23
2018-07-02T11:51:41.933Z,95188.98
2018-07-02T11:54:08.610Z,95190.22
2018-07-02T11:56:35.254Z,95186.91
2018-07-02T11:59:01.963Z,95177.86
2018-07-02T12:01:28.598Z,95183.87
2018-07-02T12:03:55.298Z,95174.34
2018-07-02T12:06:21.936Z,95179.02
2018-07-02T12:08:48.735Z,95178.47
2018-07-02T12:11:15.413Z,95179.97
2018-07-02T12:13:42.060Z,95179.03
2018-07-02T12:16:08.748Z,95177.89
2018-07-02T12:18:35.391Z,95177.34
2018-07-02T12:21:02.057Z,95177.61
2018-07-02T12:23:28.686Z,95175.31
2018-07-02T12:25:55.325Z,95170.76
2018-07-02T12:28:21.971Z,95173.00
2018-07-02T12:30:48.624Z,95177.14
2018-07-02T12:33:15.642Z,95175.80
2018-07-02T12:35:42.279Z,95174.46
2018-07-02T12:38:08.997Z,95160.02
2018-07-02T12:40:35.713Z,95172.91
2018-07-02T12:43:02.506Z,95170.61
2018-07-02T12:45:29.117Z,95170.33
2018-07-02T12:47:55.753Z,95171.98
2018-07-02T12:50:22.408Z,95175.65
2018-07-02T12:52:49.083Z,95172.61
2018-07-02T12:55:15.723Z,95153.09
2018-07-02T12:57:42.407Z,95162.37
2018-07-02T13:00:09.043Z,95172.94
2018-07-02T13:02:35.693Z,95165.83
2018-07-02T13:05:02.338Z,95164.42
2018-07-02T13:07:28.995Z,95164.05
2018-07-02T13:09:55.687Z,95161.17
2018-07-02T13:12:22.374Z,95159.52
2018-07-02T13:14:49.041Z,95162.81
2018-07-02T13:17:15.753Z,95159.83
2018-07-02T13:19:42.452Z,95167.10
2018-07-02T13:22:09.106Z,95170.07
2018-07-02T13:24:35.739Z,95175.09
2018-07-02T13:27:02.391Z,95180.84
2018-07-02T13:29:29.020Z,95174.58
2018-07-02T13:31:55.675Z,95171.66
2018-07-02T13:34:22.305Z,95153.33
2018-07-02T13:36:48.936Z,95164.00
2018-07-02T13:39:15.588Z,95165.75
2018-07-02T13:41:42.267Z,95172.28
2018-07-02T13:44:08.950Z,95168.30
2018-07-02T13:46:35.957Z,95165.55
2018-07-02T13:49:02.615Z,95171.06
2018-07-02T13:51:29.249Z,95173.00
2018-07-02T13:53:55.918Z,95170.69
2018-07-02T13:56:22.627Z,95163.55
2018-07-02T13:58:49.327Z,95168.98
2018-07-02T14:01:16.013Z,95163.34
2018-07-02T14:03:42.606Z,95166.98
2018-07-02T14:06:09.243Z,95173.28
2018-07-02T14:08:35.885Z,95165.38
2018-07-02T14:11:02.566Z,95162.20
2018-07-02T14:13:29.213Z,95156.59
2018-07-02T14:15:55.853Z,95151.47
2018-07-02T14:18:22.500Z,95147.38
2018-07-02T14:20:49.175Z,95157.30
2018-07-02T14:23:15.825Z,95146.87
2018-07-02T14:25:42.473Z,95156.30
2018-07-02T14:28:12.193Z,95157.45
2018-07-02T14:30:38.846Z,95156.57
2018-07-02T14:33:05.542Z,95146.94
2018-07-02T14:35:32.131Z,95142.73
2018-07-02T14:37:58.764Z,95141.38
2018-07-02T14:40:25.409Z,95141.77
2018-07-02T14:42:52.052Z,95132.87
2018-07-02T14:45:18.913Z,95133.18
2018-07-02T14:47:45.326Z,95126.34
2018-07-02T14:50:11.970Z,95120.42
2018-07-02T14:52:38.663Z,95114.22
2018-07-02T14:55:05.275Z,95114.19
2018-07-02T14:57:31.915Z,95111.45
2018-07-02T14:59:58.552Z,95107.85
2018-07-02T15:02:25.207Z,95114.24
2018-07-02T15:04:51.823Z,95105.03
2018-07-02T15:07:18.550Z,95101.53
2018-07-02T15:09:45.158Z,95105.61
2018-07-02T15:12:11.840Z,95099.20
2018-07-02T15:14:38.535Z,95105.36
2018-07-02T15:17:05.136Z,95092.77
2018-07-02T15:19:31.775Z,95095.31
2018-07-02T15:21:58.413Z,95096.81
2018-07-02T15:24:25.061Z,95091.86
2018-07-02T15:26:51.703Z,95096.30
2018-07-02T15:29:18.363Z,95099.67
2018-07-02T15:31:45.086Z,95098.95
2018-07-02T15:34:11.729Z,95096.95
2018-07-02T15:36:38.361Z,95103.75
2018-07-02T15:39:04.969Z,95101.28
2018-07-02T15:41:31.612Z,95102.84
2018-07-02T15:44:00.903Z,95100.98
2018-07-02T15:46:27.516Z,95099.52
2018-07-02T15:48:54.147Z,95107.11
2018-07-02T15:51:20.826Z,95103.77
2018-07-02T15:53:47.434Z,95107.27
2018-07-02T15:56:14.079Z,95106.41
2018-07-02T15:58:40.755Z,95103.94
2018-07-02T16:01:07.376Z,95105.05
2018-07-02T16:03:34.008Z,95104.45
2018-07-02T16:06:00.657Z,95106.03
2018-07-02T16:08:27.293Z,95096.71
2018-07-02T16:10:53.937Z,95103.39
2018-07-02T16:13:20.607Z,95099.66
2018-07-02T16:15:47.213Z,95098.75
2018-07-02T16:18:13.899Z,95091.16
2018-07-02T16:20:40.537Z,95094.71
2018-07-02T16:23:07.145Z,95089.39
2018-07-02T16:25:33.838Z,95085.02
2018-07-02T16:28:00.443Z,95088.00
2018-07-02T16:30:27.102Z,95091.34
2018-07-02T16:32:53.709Z,95091.89
2018-07-02T16:35:20.347Z,95089.69
2018-07-02T16:37:46.979Z,95086.86
2018-07-02T16:40:13.622Z,95080.52
2018-07-02T16:42:40.258Z,95079.16
2018-07-02T16:45:06.899Z,95082.70
2018-07-02T16:47:33.539Z,95085.41
2018-07-02T16:50:00.177Z,95076.70
2018-07-02T16:52:26.924Z,95082.88
2018-07-02T16:54:53.483Z,95083.67
2018-07-02T16:57:20.131Z,95081.80
2018-07-02T16:59:46.771Z,95080.62
2018-07-02T17:02:13.457Z,95081.86
2018-07-02T17:04:40.101Z,95084.61
2018-07-02T17:07:06.748Z,95085.37
2018-07-02T17:09:33.410Z,95079.15
2018-07-02T17:12:00.058Z,95065.52
2018-07-02T17:14:26.698Z,95061.39
2018-07-02T17:16:53.324Z,95066.48
2018-07-02T17:19:19.962Z,95066.66
2018-07-02T17:21:46.597Z,95064.57
2018-07-02T17:24:13.252Z,95071.20
2018-07-02T17:26:39.887Z,95069.80
2018-07-02T17:29:06.528Z,95077.37
2018-07-02T17:31:33.285Z,95086.01
2018-07-02T17:33:59.932Z,95086.56
2018-07-02T17:36:26.602Z,95084.53
2018-07-02T17:38:53.203Z,95087.70
2018-07-02T17:41:19.832Z,95089.73
2018-07-02T17:43:46.477Z,95090.34
2018-07-02T17:46:13.120Z,95094.81
2018-07-02T17:48:39.753Z,95090.92
2018-07-02T17:51:06.395Z,95091.96
2018-07-02T17:53:33.078Z,95096.56
2018-07-02T17:55:59.672Z,95103.63
2018-07-02T17:58:26.320Z,95102.48
2018-07-02T18:00:52.952Z,95119.70
2018-07-02T18:03:19.594Z,95128.31
2018-07-02T18:05:46.226Z,95132.66
2018-07-02T18:08:12.862Z,95131.50
2018-07-02T18:10:39.562Z,95134.80
2018-07-02T18:13:06.149Z,95138.80
2018-07-02T18:15:32.779Z,95138.39
2018-07-02T18:17:59.422Z,95150.04
2018-07-02T18:20:26.052Z,95152.87
2018-07-02T18:22:52.704Z,95153.57
2018-07-02T18:25:19.343Z,95143.80
2018-07-02T18:27:45.980Z,95153.36
2018-07-02T18:30:12.609Z,95162.05
2018-07-02T18:32:39.244Z,95164.19
2018-07-02T18:35:05.894Z,95169.85
2018-07-02T18:37:32.547Z,95177.78
2018-07-02T18:39:59.183Z,95177.09
2018-07-02T18:42:25.829Z,95170.64
2018-07-02T18:44:52.479Z,95177.34
2018-07-02T18:47:19.155Z,95181.15
2018-07-02T18:49:45.803Z,95182.02
2018-07-02T18:52:12.446Z,95182.83
2018-07-02T18:54:39.125Z,95187.97
2018-07-02T18:57:05.725Z,95190.27
2018-07-02T18:59:32.406Z,95192.36
2018-07-02T19:01:59.010Z,95200.09
2018-07-02T19:04:25.637Z,95200.04
2018-07-02T19:06:52.266Z,95203.14
2018-07-02T19:09:18.904Z,95198.64
2018-07-02T19:11:45.540Z,95201.48
2018-07-02T19:14:12.216Z,95199.28
2018-07-02T19:16:38.875Z,95191.62
2018-07-02T19:19:05.504Z,95196.36
2018-07-02T19:21:32.145Z,95198.59
2018-07-02T19:23:58.832Z,95195.54
2018-07-02T19:26:25.428Z,95201.13
2018-07-02T19:28:52.058Z,95200.37
2018-07-02T19:31:18.693Z,95199.34
2018-07-02T19:33:45.341Z,95194.26
2018-07-02T19:36:11.991Z,95197.69
2018-07-02T19:38:38.636Z,95202.45
2018-07-02T19:41:05.317Z,95204.23
2018-07-02T19:43:31.947Z,95207.26
2018-07-02T19:45:58.586Z,95198.33
2018-07-02T19:48:25.223Z,95191.91
2018-07-02T19:50:51.870Z,95188.08
2018-07-02T19:53:18.563Z,95187.98
2018-07-02T19:55:45.189Z,95190.72
2018-07-02T19:58:11.837Z,95182.18
2018-07-02T20:00:38.517Z,95196.94
2018-07-02T20:03:05.164Z,95203.42
2018-07-02T20:05:31.794Z,95203.91
2018-07-02T20:07:58.528Z,95195.47
2018-07-02T20:10:25.176Z,95187.75
2018-07-02T20:12:51.810Z,95176.80
2018-07-02T20:15:18.474Z,95178.09
2018-07-02T20:17:45.117Z,95177.45
2018-07-02T20:20:11.761Z,95182.47
2018-07-02T20:22:38.492Z,95170.63
2018-07-02T20:25:05.082Z,95172.83
2018-07-02T20:27:31.710Z,95176.52
2018-07-02T20:29:58.354Z,95170.94
2018-07-02T20:32:25.021Z,95173.20
2018-07-02T20:34:51.656Z,95169.84
2018-07-02T20:37:18.266Z,95168.48
2018-07-02T20:39:44.934Z,95160.33
2018-07-02T20:42:11.529Z,95170.94
2018-07-02T20:44:38.174Z,95174.11
2018-07-02T20:47:04.886Z,95170.86
2018-07-02T20:49:31.492Z,95173.91
2018-07-02T20:51:58.142Z,95179.69
2018-07-02T20:54:24.781Z,95195.84
2018-07-02T20:56:51.437Z,95201.05
2018-07-02T20:59:18.135Z,95204.59
2018-07-02T21:01:45.858Z,95201.55
2018-07-02T21:04:12.497Z,95198.64
2018-07-02T21:06:39.174Z,95192.05
2018-07-02T21:09:05.768Z,95184.37
2018-07-02T21:11:32.436Z,95186.84
2018-07-02T21:13:59.101Z,95184.05
2018-07-02T21:16:25.702Z,95183.67
2018-07-02T21:18:52.348Z,95180.02
2018-07-02T21:21:19.107Z,95180.88
2018-07-02T21:23:45.693Z,95182.28
2018-07-02T21:26:12.341Z,95184.05
2018-07-02T21:28:39.021Z,95183.36
2018-07-02T21:31:05.622Z,95177.17
2018-07-02T21:33:32.264Z,95176.64
2018-07-02T21:35:58.897Z,95180.08
2018-07-02T21:38:25.578Z,95186.56
2018-07-02T21:40:52.218Z,95182.75
2018-07-02T21:43:18.831Z,95188.77
2018-07-02T21:45:45.469Z,95184.14
2018-07-02T21:48:12.108Z,95183.19
2018-07-02T21:50:38.783Z,95175.78
2018-07-02T21:53:05.470Z,95172.90
2018-07-02T21:55:32.106Z,95175.20
2018-07-02T21:57:58.750Z,95165.96
2018-07-02T22:00:25.380Z,95172.03
2018-07-02T22:02:52.031Z,95161.69
2018-07-02T22:05:18.747Z,95161.31
2018-07-02T22:07:45.307Z,95159.48
2018-07-02T22:10:11.989Z,95159.10
2018-07-02T22:12:38.623Z,95163.55
2018-07-02T22:15:05.257Z,95164.48
2018-07-02T22:17:31.900Z,95156.17
2018-07-02T22:19:58.542Z,95173.11
2018-07-02T22:22:25.189Z,95166.40
2018-07-02T22:24:51.833Z,95157.28
2018-07-02T22:27:18.472Z,95152.52
2018-07-02T22:29:45.152Z,95162.48
2018-07-02T22:32:11.825Z,95151.81
2018-07-02T22:34:38.523Z,95151.01
2018-07-02T22:37:05.124Z,95157.08
2018-07-02T22:39:31.765Z,95152.34
2018-07-02T22:41:58.399Z,95147.58
2018-07-02T22:44:25.037Z,95142.64
2018-07-02T22:46:51.684Z,95144.03
2018-07-02T22:49:18.324Z,95142.11
2018-07-02T22:51:45.007Z,95140.03
2018-07-02T22:54:11.645Z,95142.91
2018-07-02T22:56:38.324Z,95142.55
2018-07-02T22:59:05.004Z,95133.64
2018-07-02T23:01:31.614Z,95135.61
2018-07-02T23:03:58.242Z,95140.30
2018-07-02T23:06:24.870Z,95138.14
2018-07-02T23:08:51.532Z,95135.16
2018-07-02T23:11:18.175Z,95135.19
2018-07-02T23:13:44.860Z,95134.98
2018-07-02T23:16:11.464Z,95133.64
2018-07-02T23:18:38.108Z,95132.69
2018-07-02T23:21:04.743Z,95136.17
2018-07-02T23:23:31.437Z,95139.75
2018-07-02T23:25:58.088Z,95141.20
2018-07-02T23:28:24.734Z,95140.13
2018-07-02T23:30:51.390Z,95143.41
2018-07-02T23:33:18.040Z,95144.75
2018-07-02T23:35:44.711Z,95151.19
2018-07-02T23:38:11.293Z,95152.42
2018-07-02T23:40:37.932Z,95150.53
2018-07-02T23:43:04.619Z,95148.13
2018-07-02T23:45:31.293Z,95152.48
2018-07-02T23:47:58.017Z,95145.39
2018-07-02T23:50:24.665Z,95140.77
2018-07-02T23:52:54.488Z,95140.95
2018-07-02T23:55:21.176Z,95129.80
2018-07-02T23:57:47.858Z,95122.45
